sensor_id;sensor_type;location;lat;lon;timestamp;temperature;humidity
30308;DHT22;17114;52.314;8.910;2024-02-21T00:01:07;8.40;99.90
30308;DHT22;17114;52.314;8.910;2024-02-21T00:03:35;8.30;99.90
30308;DHT22;17114;52.314;8.910;2024-02-21T00:06:02;8.30;99.90
30308;DHT22;17114;52.314;8.910;2024-02-21T00:08:29;8.30;99.90
30308;DHT22;17114;52.314;8.910;2024-02-21T00:10:56;8.30;99.90
30308;DHT22;17114;52.314;8.910;2024-02-21T00:13:23;8.30;99.90
30308;DHT22;17114;52.314;8.910;2024-02-21T00:15:50;8.30;99.90
30308;DHT22;17114;52.314;8.910;2024-02-21T00:18:17;8.30;99.90
30308;DHT22;17114;52.314;8.910;2024-02-21T00:20:44;8.30;99.90
30308;DHT22;17114;52.314;8.910;2024-02-21T00:23:11;8.30;99.90
30308;DHT22;17114;52.314;8.910;2024-02-21T00:25:38;8.30;99.90
30308;DHT22;17114;52.314;8.910;2024-02-21T00:28:05;8.40;99.90
30308;DHT22;17114;52.314;8.910;2024-02-21T00:30:33;8.30;99.90
30308;DHT22;17114;52.314;8.910;2024-02-21T00:32:59;8.50;99.90
30308;DHT22;17114;52.314;8.910;2024-02-21T00:35:27;8.40;99.90
30308;DHT22;17114;52.314;8.910;2024-02-21T00:37:54;8.40;99.90
30308;DHT22;17114;52.314;8.910;2024-02-21T00:40:21;8.40;99.90
30308;DHT22;17114;52.314;8.910;2024-02-21T00:42:49;8.40;99.90
30308;DHT22;17114;52.314;8.910;2024-02-21T00:45:16;8.40;99.90
30308;DHT22;17114;52.314;8.910;2024-02-21T00:47:43;8.40;99.90
30308;DHT22;17114;52.314;8.910;2024-02-21T00:50:10;8.40;99.90
30308;DHT22;17114;52.314;8.910;2024-02-21T00:52:37;8.50;99.90
30308;DHT22;17114;52.314;8.910;2024-02-21T00:55:04;8.50;99.90
30308;DHT22;17114;52.314;8.910;2024-02-21T00:57:31;8.50;99.90
30308;DHT22;17114;52.314;8.910;2024-02-21T00:59:58;8.40;99.90
30308;DHT22;17114;52.314;8.910;2024-02-21T01:02:26;8.40;99.90
30308;DHT22;17114;52.314;8.910;2024-02-21T01:04:53;8.50;99.90
30308;DHT22;17114;52.314;8.910;2024-02-21T01:07:20;8.50;99.90
30308;DHT22;17114;52.314;8.910;2024-02-21T01:09:47;8.50;99.90
30308;DHT22;17114;52.314;8.910;2024-02-21T01:12:14;8.50;99.90
30308;DHT22;17114;52.314;8.910;2024-02-21T01:14:41;8.40;99.90
30308;DHT22;17114;52.314;8.910;2024-02-21T01:17:08;8.50;99.90
30308;DHT22;17114;52.314;8.910;2024-02-21T01:19:35;8.50;99.90
30308;DHT22;17114;52.314;8.910;2024-02-21T01:22:02;8.50;99.90
30308;DHT22;17114;52.314;8.910;2024-02-21T01:24:29;8.50;99.90
30308;DHT22;17114;52.314;8.910;2024-02-21T01:26:56;8.50;99.90
30308;DHT22;17114;52.314;8.910;2024-02-21T01:29:23;8.50;99.90
30308;DHT22;17114;52.314;8.910;2024-02-21T01:31:50;8.50;99.90
30308;DHT22;17114;52.314;8.910;2024-02-21T01:34:17;8.50;99.90
30308;DHT22;17114;52.314;8.910;2024-02-21T01:36:44;8.50;99.90
30308;DHT22;17114;52.314;8.910;2024-02-21T01:39:11;8.50;99.90
30308;DHT22;17114;52.314;8.910;2024-02-21T01:41:38;8.50;99.90
30308;DHT22;17114;52.314;8.910;2024-02-21T01:44:05;8.50;99.90
30308;DHT22;17114;52.314;8.910;2024-02-21T01:46:32;8.50;99.90
30308;DHT22;17114;52.314;8.910;2024-02-21T01:48:59;8.50;99.90
30308;DHT22;17114;52.314;8.910;2024-02-21T01:51:27;8.50;99.90
30308;DHT22;17114;52.314;8.910;2024-02-21T01:53:55;8.50;99.90
30308;DHT22;17114;52.314;8.910;2024-02-21T01:56:23;8.60;99.90
30308;DHT22;17114;52.314;8.910;2024-02-21T01:58:51;8.50;99.90
30308;DHT22;17114;52.314;8.910;2024-02-21T02:01:18;8.50;99.90
30308;DHT22;17114;52.314;8.910;2024-02-21T02:03:48;8.50;99.90
30308;DHT22;17114;52.314;8.910;2024-02-21T02:06:16;8.50;99.90
30308;DHT22;17114;52.314;8.910;2024-02-21T02:08:44;8.50;99.90
30308;DHT22;17114;52.314;8.910;2024-02-21T02:11:13;8.60;99.90
30308;DHT22;17114;52.314;8.910;2024-02-21T02:13:40;8.50;99.90
30308;DHT22;17114;52.314;8.910;2024-02-21T02:16:07;8.60;99.90
30308;DHT22;17114;52.314;8.910;2024-02-21T02:18:35;8.50;99.90
30308;DHT22;17114;52.314;8.910;2024-02-21T02:21:08;8.50;99.90
30308;DHT22;17114;52.314;8.910;2024-02-21T02:23:36;8.50;99.90
30308;DHT22;17114;52.314;8.910;2024-02-21T02:26:03;8.50;99.90
30308;DHT22;17114;52.314;8.910;2024-02-21T02:28:30;8.50;99.90
30308;DHT22;17114;52.314;8.910;2024-02-21T02:30:57;8.60;99.90
30308;DHT22;17114;52.314;8.910;2024-02-21T02:33:24;8.50;99.90
30308;DHT22;17114;52.314;8.910;2024-02-21T02:35:51;8.50;99.90
30308;DHT22;17114;52.314;8.910;2024-02-21T02:38:18;8.60;99.90
30308;DHT22;17114;52.314;8.910;2024-02-21T02:40:45;8.60;99.90
30308;DHT22;17114;52.314;8.910;2024-02-21T02:43:12;8.50;99.90
30308;DHT22;17114;52.314;8.910;2024-02-21T02:45:39;8.50;99.90
30308;DHT22;17114;52.314;8.910;2024-02-21T02:48:06;8.50;99.90
30308;DHT22;17114;52.314;8.910;2024-02-21T02:50:34;8.50;99.90
30308;DHT22;17114;52.314;8.910;2024-02-21T02:53:01;8.60;99.90
30308;DHT22;17114;52.314;8.910;2024-02-21T02:55:28;8.60;99.90
30308;DHT22;17114;52.314;8.910;2024-02-21T02:57:55;8.60;99.90
30308;DHT22;17114;52.314;8.910;2024-02-21T03:00:22;8.60;99.90
30308;DHT22;17114;52.314;8.910;2024-02-21T03:02:50;8.60;99.90
30308;DHT22;17114;52.314;8.910;2024-02-21T03:05:19;8.80;99.90
30308;DHT22;17114;52.314;8.910;2024-02-21T03:07:47;8.60;99.90
30308;DHT22;17114;52.314;8.910;2024-02-21T03:10:16;8.60;99.90
30308;DHT22;17114;52.314;8.910;2024-02-21T03:12:44;8.70;99.90
30308;DHT22;17114;52.314;8.910;2024-02-21T03:15:12;8.60;99.90
30308;DHT22;17114;52.314;8.910;2024-02-21T03:17:39;8.60;99.90
30308;DHT22;17114;52.314;8.910;2024-02-21T03:20:07;8.60;99.90
30308;DHT22;17114;52.314;8.910;2024-02-21T03:22:39;8.60;99.90
30308;DHT22;17114;52.314;8.910;2024-02-21T03:25:08;8.60;99.90
30308;DHT22;17114;52.314;8.910;2024-02-21T03:27:35;8.60;99.90
30308;DHT22;17114;52.314;8.910;2024-02-21T03:30:02;8.60;99.90
30308;DHT22;17114;52.314;8.910;2024-02-21T03:32:31;8.60;99.90
30308;DHT22;17114;52.314;8.910;2024-02-21T03:34:58;8.60;99.90
30308;DHT22;17114;52.314;8.910;2024-02-21T03:37:26;8.60;99.90
30308;DHT22;17114;52.314;8.910;2024-02-21T03:39:53;8.60;99.90
30308;DHT22;17114;52.314;8.910;2024-02-21T03:42:20;8.50;99.90
30308;DHT22;17114;52.314;8.910;2024-02-21T03:44:47;8.60;99.90
30308;DHT22;17114;52.314;8.910;2024-02-21T03:47:14;8.70;99.90
30308;DHT22;17114;52.314;8.910;2024-02-21T03:49:41;8.60;99.90
30308;DHT22;17114;52.314;8.910;2024-02-21T03:52:08;8.60;99.90
30308;DHT22;17114;52.314;8.910;2024-02-21T03:54:35;8.60;99.90
30308;DHT22;17114;52.314;8.910;2024-02-21T03:57:02;8.60;99.90
30308;DHT22;17114;52.314;8.910;2024-02-21T03:59:29;8.60;99.90
30308;DHT22;17114;52.314;8.910;2024-02-21T04:01:56;8.60;99.90
30308;DHT22;17114;52.314;8.910;2024-02-21T04:04:23;8.50;99.90
30308;DHT22;17114;52.314;8.910;2024-02-21T04:06:51;8.60;99.90
30308;DHT22;17114;52.314;8.910;2024-02-21T04:09:18;8.60;99.90
30308;DHT22;17114;52.314;8.910;2024-02-21T04:11:46;8.60;99.90
30308;DHT22;17114;52.314;8.910;2024-02-21T04:14:13;8.60;99.90
30308;DHT22;17114;52.314;8.910;2024-02-21T04:16:40;8.50;99.90
30308;DHT22;17114;52.314;8.910;2024-02-21T04:19:08;8.50;99.90
30308;DHT22;17114;52.314;8.910;2024-02-21T04:21:35;8.60;99.90
30308;DHT22;17114;52.314;8.910;2024-02-21T04:24:03;8.60;99.90
30308;DHT22;17114;52.314;8.910;2024-02-21T04:26:33;8.60;99.90
30308;DHT22;17114;52.314;8.910;2024-02-21T04:29:00;8.50;99.90
30308;DHT22;17114;52.314;8.910;2024-02-21T04:31:28;8.50;99.90
30308;DHT22;17114;52.314;8.910;2024-02-21T04:33:56;8.50;99.90
30308;DHT22;17114;52.314;8.910;2024-02-21T04:36:23;8.50;99.90
30308;DHT22;17114;52.314;8.910;2024-02-21T04:38:51;8.50;99.90
30308;DHT22;17114;52.314;8.910;2024-02-21T04:41:18;8.50;99.90
30308;DHT22;17114;52.314;8.910;2024-02-21T04:43:46;8.50;99.90
30308;DHT22;17114;52.314;8.910;2024-02-21T04:46:14;8.60;99.90
30308;DHT22;17114;52.314;8.910;2024-02-21T04:48:42;8.40;99.90
30308;DHT22;17114;52.314;8.910;2024-02-21T04:51:11;8.40;99.90
30308;DHT22;17114;52.314;8.910;2024-02-21T04:53:38;8.40;99.90
30308;DHT22;17114;52.314;8.910;2024-02-21T04:56:05;8.50;99.90
30308;DHT22;17114;52.314;8.910;2024-02-21T04:58:32;8.40;99.90
30308;DHT22;17114;52.314;8.910;2024-02-21T05:00:59;8.40;99.90
30308;DHT22;17114;52.314;8.910;2024-02-21T05:03:26;8.40;99.90
30308;DHT22;17114;52.314;8.910;2024-02-21T05:05:53;8.40;99.90
30308;DHT22;17114;52.314;8.910;2024-02-21T05:08:21;8.40;99.90
30308;DHT22;17114;52.314;8.910;2024-02-21T05:10:47;8.40;99.90
30308;DHT22;17114;52.314;8.910;2024-02-21T05:13:14;8.40;99.90
30308;DHT22;17114;52.314;8.910;2024-02-21T05:15:42;8.40;99.90
30308;DHT22;17114;52.314;8.910;2024-02-21T05:18:09;8.40;99.90
30308;DHT22;17114;52.314;8.910;2024-02-21T05:20:36;8.30;99.90
30308;DHT22;17114;52.314;8.910;2024-02-21T05:23:03;8.30;99.90
30308;DHT22;17114;52.314;8.910;2024-02-21T05:25:30;8.40;99.90
30308;DHT22;17114;52.314;8.910;2024-02-21T05:27:57;8.40;99.90
30308;DHT22;17114;52.314;8.910;2024-02-21T05:30:29;8.30;99.90
30308;DHT22;17114;52.314;8.910;2024-02-21T05:32:56;8.30;99.90
30308;DHT22;17114;52.314;8.910;2024-02-21T05:35:28;8.30;99.90
30308;DHT22;17114;52.314;8.910;2024-02-21T05:37:56;8.40;99.90
30308;DHT22;17114;52.314;8.910;2024-02-21T05:40:23;8.40;99.90
30308;DHT22;17114;52.314;8.910;2024-02-21T05:42:51;8.30;99.90
30308;DHT22;17114;52.314;8.910;2024-02-21T05:45:18;8.30;99.90
30308;DHT22;17114;52.314;8.910;2024-02-21T05:47:45;8.30;99.90
30308;DHT22;17114;52.314;8.910;2024-02-21T05:50:13;8.30;99.90
30308;DHT22;17114;52.314;8.910;2024-02-21T05:52:40;8.30;99.90
30308;DHT22;17114;52.314;8.910;2024-02-21T05:55:07;8.30;99.90
30308;DHT22;17114;52.314;8.910;2024-02-21T05:57:36;8.30;99.90
30308;DHT22;17114;52.314;8.910;2024-02-21T06:00:06;8.20;99.90
30308;DHT22;17114;52.314;8.910;2024-02-21T06:02:33;8.20;99.90
30308;DHT22;17114;52.314;8.910;2024-02-21T06:05:00;8.20;99.90
30308;DHT22;17114;52.314;8.910;2024-02-21T06:07:28;8.20;99.90
30308;DHT22;17114;52.314;8.910;2024-02-21T06:09:55;8.20;99.90
30308;DHT22;17114;52.314;8.910;2024-02-21T06:12:22;8.20;99.90
30308;DHT22;17114;52.314;8.910;2024-02-21T06:14:49;8.20;99.90
30308;DHT22;17114;52.314;8.910;2024-02-21T06:17:16;8.20;99.90
30308;DHT22;17114;52.314;8.910;2024-02-21T06:19:44;8.20;99.90
30308;DHT22;17114;52.314;8.910;2024-02-21T06:22:12;8.20;99.90
30308;DHT22;17114;52.314;8.910;2024-02-21T06:24:39;8.20;99.90
30308;DHT22;17114;52.314;8.910;2024-02-21T06:27:06;8.20;99.90
30308;DHT22;17114;52.314;8.910;2024-02-21T06:29:36;8.20;99.90
30308;DHT22;17114;52.314;8.910;2024-02-21T06:32:04;8.20;99.90
30308;DHT22;17114;52.314;8.910;2024-02-21T06:34:31;8.20;99.90
30308;DHT22;17114;52.314;8.910;2024-02-21T06:37:00;8.20;99.90
30308;DHT22;17114;52.314;8.910;2024-02-21T06:39:27;8.20;99.90
30308;DHT22;17114;52.314;8.910;2024-02-21T06:41:56;8.30;99.90
30308;DHT22;17114;52.314;8.910;2024-02-21T06:44:29;8.10;99.90
30308;DHT22;17114;52.314;8.910;2024-02-21T06:46:56;8.20;99.90
30308;DHT22;17114;52.314;8.910;2024-02-21T06:49:23;8.20;99.90
30308;DHT22;17114;52.314;8.910;2024-02-21T06:51:50;8.20;99.90
30308;DHT22;17114;52.314;8.910;2024-02-21T06:54:17;8.20;99.90
30308;DHT22;17114;52.314;8.910;2024-02-21T06:56:44;8.20;99.90
30308;DHT22;17114;52.314;8.910;2024-02-21T06:59:11;8.30;99.90
30308;DHT22;17114;52.314;8.910;2024-02-21T07:01:49;8.20;99.90
30308;DHT22;17114;52.314;8.910;2024-02-21T07:04:16;8.20;99.90
30308;DHT22;17114;52.314;8.910;2024-02-21T07:06:43;8.20;99.90
30308;DHT22;17114;52.314;8.910;2024-02-21T07:09:11;8.30;99.90
30308;DHT22;17114;52.314;8.910;2024-02-21T07:11:37;8.30;99.90
30308;DHT22;17114;52.314;8.910;2024-02-21T07:14:05;8.30;99.90
30308;DHT22;17114;52.314;8.910;2024-02-21T07:16:32;8.30;99.90
30308;DHT22;17114;52.314;8.910;2024-02-21T07:19:00;8.30;99.90
30308;DHT22;17114;52.314;8.910;2024-02-21T07:21:27;8.40;99.90
30308;DHT22;17114;52.314;8.910;2024-02-21T07:23:54;8.40;99.90
30308;DHT22;17114;52.314;8.910;2024-02-21T07:26:21;8.40;99.90
30308;DHT22;17114;52.314;8.910;2024-02-21T07:28:49;8.40;99.90
30308;DHT22;17114;52.314;8.910;2024-02-21T07:31:16;8.40;99.90
30308;DHT22;17114;52.314;8.910;2024-02-21T07:33:43;8.50;99.90
30308;DHT22;17114;52.314;8.910;2024-02-21T07:36:11;8.60;99.90
30308;DHT22;17114;52.314;8.910;2024-02-21T07:38:38;8.50;99.90
30308;DHT22;17114;52.314;8.910;2024-02-21T07:41:05;8.50;99.90
30308;DHT22;17114;52.314;8.910;2024-02-21T07:43:33;8.60;99.90
30308;DHT22;17114;52.314;8.910;2024-02-21T07:46:00;8.60;99.90
30308;DHT22;17114;52.314;8.910;2024-02-21T07:48:27;8.60;99.90
30308;DHT22;17114;52.314;8.910;2024-02-21T07:50:54;8.60;99.90
30308;DHT22;17114;52.314;8.910;2024-02-21T07:53:21;8.60;99.90
30308;DHT22;17114;52.314;8.910;2024-02-21T07:55:48;8.50;99.90
30308;DHT22;17114;52.314;8.910;2024-02-21T07:58:15;8.70;99.90
30308;DHT22;17114;52.314;8.910;2024-02-21T08:00:42;8.70;99.90
30308;DHT22;17114;52.314;8.910;2024-02-21T08:03:09;8.70;99.90
30308;DHT22;17114;52.314;8.910;2024-02-21T08:05:36;8.70;99.90
30308;DHT22;17114;52.314;8.910;2024-02-21T08:08:04;8.70;99.90
30308;DHT22;17114;52.314;8.910;2024-02-21T08:10:31;8.80;99.90
30308;DHT22;17114;52.314;8.910;2024-02-21T08:12:58;8.80;99.90
30308;DHT22;17114;52.314;8.910;2024-02-21T08:15:25;8.80;99.90
30308;DHT22;17114;52.314;8.910;2024-02-21T08:17:56;8.80;99.90
30308;DHT22;17114;52.314;8.910;2024-02-21T08:20:27;8.90;99.90
30308;DHT22;17114;52.314;8.910;2024-02-21T08:22:53;9.00;99.90
30308;DHT22;17114;52.314;8.910;2024-02-21T08:25:21;8.90;99.90
30308;DHT22;17114;52.314;8.910;2024-02-21T08:27:47;9.00;99.90
30308;DHT22;17114;52.314;8.910;2024-02-21T08:30:15;8.90;99.90
30308;DHT22;17114;52.314;8.910;2024-02-21T08:32:42;9.00;99.90
30308;DHT22;17114;52.314;8.910;2024-02-21T08:35:10;9.00;99.90
30308;DHT22;17114;52.314;8.910;2024-02-21T08:37:37;9.00;99.90
30308;DHT22;17114;52.314;8.910;2024-02-21T08:40:04;9.00;99.90
30308;DHT22;17114;52.314;8.910;2024-02-21T08:42:36;9.10;99.90
30308;DHT22;17114;52.314;8.910;2024-02-21T08:45:05;9.10;99.90
30308;DHT22;17114;52.314;8.910;2024-02-21T08:47:32;9.10;99.90
30308;DHT22;17114;52.314;8.910;2024-02-21T08:49:59;9.10;99.90
30308;DHT22;17114;52.314;8.910;2024-02-21T08:52:40;9.10;99.90
30308;DHT22;17114;52.314;8.910;2024-02-21T08:55:08;9.20;99.90
30308;DHT22;17114;52.314;8.910;2024-02-21T08:57:35;9.20;99.90
30308;DHT22;17114;52.314;8.910;2024-02-21T09:00:04;9.20;99.90
30308;DHT22;17114;52.314;8.910;2024-02-21T09:02:39;9.30;99.90
30308;DHT22;17114;52.314;8.910;2024-02-21T09:05:07;9.30;99.90
30308;DHT22;17114;52.314;8.910;2024-02-21T09:07:34;9.30;99.90
30308;DHT22;17114;52.314;8.910;2024-02-21T09:10:01;9.40;99.90
30308;DHT22;17114;52.314;8.910;2024-02-21T09:12:28;9.40;99.90
30308;DHT22;17114;52.314;8.910;2024-02-21T09:14:56;9.40;99.90
30308;DHT22;17114;52.314;8.910;2024-02-21T09:17:23;9.40;99.90
30308;DHT22;17114;52.314;8.910;2024-02-21T09:19:52;9.40;99.90
30308;DHT22;17114;52.314;8.910;2024-02-21T09:22:19;9.50;99.90
30308;DHT22;17114;52.314;8.910;2024-02-21T09:24:46;9.50;99.90
30308;DHT22;17114;52.314;8.910;2024-02-21T09:27:14;9.60;99.90
30308;DHT22;17114;52.314;8.910;2024-02-21T09:29:41;9.60;99.90
30308;DHT22;17114;52.314;8.910;2024-02-21T09:32:08;9.70;99.90
30308;DHT22;17114;52.314;8.910;2024-02-21T09:34:35;9.70;99.90
30308;DHT22;17114;52.314;8.910;2024-02-21T09:37:03;9.80;99.90
30308;DHT22;17114;52.314;8.910;2024-02-21T09:39:30;9.90;99.90
30308;DHT22;17114;52.314;8.910;2024-02-21T09:42:01;10.00;99.90
30308;DHT22;17114;52.314;8.910;2024-02-21T09:44:36;10.10;99.90
30308;DHT22;17114;52.314;8.910;2024-02-21T09:47:07;10.20;99.90
30308;DHT22;17114;52.314;8.910;2024-02-21T09:49:36;10.20;99.90
30308;DHT22;17114;52.314;8.910;2024-02-21T09:52:06;10.30;99.90
30308;DHT22;17114;52.314;8.910;2024-02-21T09:54:34;10.30;99.90
30308;DHT22;17114;52.314;8.910;2024-02-21T09:57:02;10.30;99.90
30308;DHT22;17114;52.314;8.910;2024-02-21T09:59:32;10.50;99.90
30308;DHT22;17114;52.314;8.910;2024-02-21T10:01:59;10.60;99.90
30308;DHT22;17114;52.314;8.910;2024-02-21T10:04:27;10.80;99.90
30308;DHT22;17114;52.314;8.910;2024-02-21T10:06:55;10.90;99.90
30308;DHT22;17114;52.314;8.910;2024-02-21T10:09:28;10.90;99.90
30308;DHT22;17114;52.314;8.910;2024-02-21T10:12:08;10.80;99.90
30308;DHT22;17114;52.314;8.910;2024-02-21T10:14:37;10.80;99.90
30308;DHT22;17114;52.314;8.910;2024-02-21T10:17:04;10.80;99.90
30308;DHT22;17114;52.314;8.910;2024-02-21T10:19:37;10.90;99.90
30308;DHT22;17114;52.314;8.910;2024-02-21T10:22:06;10.80;99.90
30308;DHT22;17114;52.314;8.910;2024-02-21T10:24:35;10.70;99.90
30308;DHT22;17114;52.314;8.910;2024-02-21T10:27:06;10.80;99.90
30308;DHT22;17114;52.314;8.910;2024-02-21T10:29:39;10.70;99.90
30308;DHT22;17114;52.314;8.910;2024-02-21T10:32:12;10.70;99.90
30308;DHT22;17114;52.314;8.910;2024-02-21T10:34:41;10.70;99.90
30308;DHT22;17114;52.314;8.910;2024-02-21T10:37:10;10.80;99.90
30308;DHT22;17114;52.314;8.910;2024-02-21T10:39:39;10.80;99.90
30308;DHT22;17114;52.314;8.910;2024-02-21T10:42:06;10.80;99.90
30308;DHT22;17114;52.314;8.910;2024-02-21T10:44:39;10.70;99.90
30308;DHT22;17114;52.314;8.910;2024-02-21T10:47:10;10.70;99.90
30308;DHT22;17114;52.314;8.910;2024-02-21T10:49:40;10.70;99.90
30308;DHT22;17114;52.314;8.910;2024-02-21T10:55:38;10.80;99.90
30308;DHT22;17114;52.314;8.910;2024-02-21T10:58:10;10.90;99.90
30308;DHT22;17114;52.314;8.910;2024-02-21T11:00:38;10.90;99.90
30308;DHT22;17114;52.314;8.910;2024-02-21T11:03:05;10.90;99.90
30308;DHT22;17114;52.314;8.910;2024-02-21T11:05:33;11.00;99.90
30308;DHT22;17114;52.314;8.910;2024-02-21T11:08:01;11.00;99.90
30308;DHT22;17114;52.314;8.910;2024-02-21T11:10:28;11.00;99.90
30308;DHT22;17114;52.314;8.910;2024-02-21T11:13:08;10.90;99.90
30308;DHT22;17114;52.314;8.910;2024-02-21T11:15:36;10.90;99.90
30308;DHT22;17114;52.314;8.910;2024-02-21T11:18:03;11.00;99.90
30308;DHT22;17114;52.314;8.910;2024-02-21T11:20:38;11.00;99.90
30308;DHT22;17114;52.314;8.910;2024-02-21T11:23:05;10.90;99.90
30308;DHT22;17114;52.314;8.910;2024-02-21T11:25:32;10.90;99.90
30308;DHT22;17114;52.314;8.910;2024-02-21T11:28:03;10.90;99.90
30308;DHT22;17114;52.314;8.910;2024-02-21T11:30:31;11.00;99.90
30308;DHT22;17114;52.314;8.910;2024-02-21T11:33:08;11.00;99.90
30308;DHT22;17114;52.314;8.910;2024-02-21T11:35:35;10.90;99.90
30308;DHT22;17114;52.314;8.910;2024-02-21T11:38:10;11.00;99.90
30308;DHT22;17114;52.314;8.910;2024-02-21T11:40:46;11.10;99.90
30308;DHT22;17114;52.314;8.910;2024-02-21T11:43:15;11.30;99.90
30308;DHT22;17114;52.314;8.910;2024-02-21T11:45:42;11.40;99.90
30308;DHT22;17114;52.314;8.910;2024-02-21T11:48:09;11.40;99.90
30308;DHT22;17114;52.314;8.910;2024-02-21T11:50:36;11.40;99.90
30308;DHT22;17114;52.314;8.910;2024-02-21T11:53:06;11.40;99.90
30308;DHT22;17114;52.314;8.910;2024-02-21T11:55:33;11.50;99.90
30308;DHT22;17114;52.314;8.910;2024-02-21T11:58:01;11.50;99.90
30308;DHT22;17114;52.314;8.910;2024-02-21T12:00:28;11.40;99.90
30308;DHT22;17114;52.314;8.910;2024-02-21T12:02:55;11.40;99.90
30308;DHT22;17114;52.314;8.910;2024-02-21T12:05:28;11.40;99.90
30308;DHT22;17114;52.314;8.910;2024-02-21T12:07:56;11.30;99.90
30308;DHT22;17114;52.314;8.910;2024-02-21T12:10:28;11.20;99.90
30308;DHT22;17114;52.314;8.910;2024-02-21T12:13:13;11.20;99.90
30308;DHT22;17114;52.314;8.910;2024-02-21T12:15:40;11.20;99.90
30308;DHT22;17114;52.314;8.910;2024-02-21T12:18:09;11.20;99.90
30308;DHT22;17114;52.314;8.910;2024-02-21T12:20:38;11.10;99.90
30308;DHT22;17114;52.314;8.910;2024-02-21T12:23:10;11.20;99.90
30308;DHT22;17114;52.314;8.910;2024-02-21T12:25:38;11.20;99.90
30308;DHT22;17114;52.314;8.910;2024-02-21T12:28:06;11.20;99.90
30308;DHT22;17114;52.314;8.910;2024-02-21T12:30:33;11.20;99.90
30308;DHT22;17114;52.314;8.910;2024-02-21T12:33:02;11.30;99.90
30308;DHT22;17114;52.314;8.910;2024-02-21T12:35:29;11.40;99.90
30308;DHT22;17114;52.314;8.910;2024-02-21T12:37:58;11.30;99.90
30308;DHT22;17114;52.314;8.910;2024-02-21T12:40:26;11.30;99.90
30308;DHT22;17114;52.314;8.910;2024-02-21T12:43:02;11.20;99.90
30308;DHT22;17114;52.314;8.910;2024-02-21T12:45:29;11.10;99.90
30308;DHT22;17114;52.314;8.910;2024-02-21T12:47:57;11.10;99.90
30308;DHT22;17114;52.314;8.910;2024-02-21T12:50:24;11.10;99.90
30308;DHT22;17114;52.314;8.910;2024-02-21T12:52:51;11.10;99.90
30308;DHT22;17114;52.314;8.910;2024-02-21T12:55:19;11.20;99.90
30308;DHT22;17114;52.314;8.910;2024-02-21T12:57:47;11.20;99.90
30308;DHT22;17114;52.314;8.910;2024-02-21T13:00:14;11.20;99.90
30308;DHT22;17114;52.314;8.910;2024-02-21T13:02:41;11.20;99.90
30308;DHT22;17114;52.314;8.910;2024-02-21T13:05:08;11.10;99.90
30308;DHT22;17114;52.314;8.910;2024-02-21T13:07:36;10.90;99.90
30308;DHT22;17114;52.314;8.910;2024-02-21T13:10:03;10.80;99.90
30308;DHT22;17114;52.314;8.910;2024-02-21T13:12:32;10.80;99.90
30308;DHT22;17114;52.314;8.910;2024-02-21T13:14:59;10.80;99.90
30308;DHT22;17114;52.314;8.910;2024-02-21T13:17:26;10.80;99.90
30308;DHT22;17114;52.314;8.910;2024-02-21T13:19:57;10.80;99.90
30308;DHT22;17114;52.314;8.910;2024-02-21T13:22:24;10.80;99.90
30308;DHT22;17114;52.314;8.910;2024-02-21T13:24:53;10.90;99.90
30308;DHT22;17114;52.314;8.910;2024-02-21T13:27:24;10.90;99.90
30308;DHT22;17114;52.314;8.910;2024-02-21T13:29:51;10.90;99.90
30308;DHT22;17114;52.314;8.910;2024-02-21T13:32:19;10.80;99.90
30308;DHT22;17114;52.314;8.910;2024-02-21T13:34:46;10.80;99.90
30308;DHT22;17114;52.314;8.910;2024-02-21T13:37:14;10.70;99.90
30308;DHT22;17114;52.314;8.910;2024-02-21T13:39:41;10.60;99.90
30308;DHT22;17114;52.314;8.910;2024-02-21T13:42:08;10.50;99.90
30308;DHT22;17114;52.314;8.910;2024-02-21T13:44:36;10.50;99.90
30308;DHT22;17114;52.314;8.910;2024-02-21T13:47:04;10.50;99.90
30308;DHT22;17114;52.314;8.910;2024-02-21T13:49:31;10.40;99.90
30308;DHT22;17114;52.314;8.910;2024-02-21T13:51:58;10.40;99.90
30308;DHT22;17114;52.314;8.910;2024-02-21T13:54:25;10.50;99.90
30308;DHT22;17114;52.314;8.910;2024-02-21T13:56:52;10.50;99.90
30308;DHT22;17114;52.314;8.910;2024-02-21T13:59:19;10.40;99.90
30308;DHT22;17114;52.314;8.910;2024-02-21T14:01:46;10.40;99.90
30308;DHT22;17114;52.314;8.910;2024-02-21T14:04:13;10.40;99.90
30308;DHT22;17114;52.314;8.910;2024-02-21T14:06:40;10.50;99.90
30308;DHT22;17114;52.314;8.910;2024-02-21T14:09:10;10.50;99.90
30308;DHT22;17114;52.314;8.910;2024-02-21T14:11:37;10.40;99.90
30308;DHT22;17114;52.314;8.910;2024-02-21T14:14:05;10.30;99.90
30308;DHT22;17114;52.314;8.910;2024-02-21T14:16:33;10.20;99.90
30308;DHT22;17114;52.314;8.910;2024-02-21T14:19:00;10.40;99.90
30308;DHT22;17114;52.314;8.910;2024-02-21T14:21:28;10.20;99.90
30308;DHT22;17114;52.314;8.910;2024-02-21T14:23:55;10.10;99.90
30308;DHT22;17114;52.314;8.910;2024-02-21T14:26:23;10.20;99.90
30308;DHT22;17114;52.314;8.910;2024-02-21T14:28:50;10.20;99.90
30308;DHT22;17114;52.314;8.910;2024-02-21T14:31:17;10.20;99.90
30308;DHT22;17114;52.314;8.910;2024-02-21T14:33:44;10.20;99.90
30308;DHT22;17114;52.314;8.910;2024-02-21T14:36:13;10.20;99.90
30308;DHT22;17114;52.314;8.910;2024-02-21T14:38:42;10.20;99.90
30308;DHT22;17114;52.314;8.910;2024-02-21T14:41:10;10.20;99.90
30308;DHT22;17114;52.314;8.910;2024-02-21T14:43:40;10.20;99.90
30308;DHT22;17114;52.314;8.910;2024-02-21T14:46:07;10.30;99.90
30308;DHT22;17114;52.314;8.910;2024-02-21T14:48:34;10.30;99.90
30308;DHT22;17114;52.314;8.910;2024-02-21T14:51:01;10.20;99.90
30308;DHT22;17114;52.314;8.910;2024-02-21T14:53:29;10.20;99.90
30308;DHT22;17114;52.314;8.910;2024-02-21T14:55:57;10.20;99.90
30308;DHT22;17114;52.314;8.910;2024-02-21T14:58:27;10.20;99.90
30308;DHT22;17114;52.314;8.910;2024-02-21T15:00:54;10.30;99.90
30308;DHT22;17114;52.314;8.910;2024-02-21T15:03:21;10.20;99.90
30308;DHT22;17114;52.314;8.910;2024-02-21T15:05:48;10.20;99.90
30308;DHT22;17114;52.314;8.910;2024-02-21T15:08:15;10.30;99.90
30308;DHT22;17114;52.314;8.910;2024-02-21T15:10:45;10.30;99.90
30308;DHT22;17114;52.314;8.910;2024-02-21T15:13:12;10.10;99.90
30308;DHT22;17114;52.314;8.910;2024-02-21T15:15:39;10.20;99.90
30308;DHT22;17114;52.314;8.910;2024-02-21T15:18:06;10.20;99.90
30308;DHT22;17114;52.314;8.910;2024-02-21T15:20:34;10.20;99.90
30308;DHT22;17114;52.314;8.910;2024-02-21T15:23:01;10.20;99.90
30308;DHT22;17114;52.314;8.910;2024-02-21T15:25:32;10.20;99.90
30308;DHT22;17114;52.314;8.910;2024-02-21T15:28:03;10.20;99.90
30308;DHT22;17114;52.314;8.910;2024-02-21T15:30:31;10.20;99.90
30308;DHT22;17114;52.314;8.910;2024-02-21T15:32:59;10.30;99.90
30308;DHT22;17114;52.314;8.910;2024-02-21T15:35:30;10.30;99.90
30308;DHT22;17114;52.314;8.910;2024-02-21T15:37:58;10.30;99.90
30308;DHT22;17114;52.314;8.910;2024-02-21T15:40:28;10.40;99.90
30308;DHT22;17114;52.314;8.910;2024-02-21T15:42:56;10.30;99.90
30308;DHT22;17114;52.314;8.910;2024-02-21T15:45:23;10.30;99.90
30308;DHT22;17114;52.314;8.910;2024-02-21T15:47:50;10.30;99.90